Nantucket Memorial Airport
KACK : now visible

Airfield :











YOU CAN JOIN US ON...

 
LOGIN :

Register | Disclaimer

   EN    FR    IT 

 









Legend :    VFR   Marginal VFR   IFR   Intensive IFR   Very Intensive IFR
Visi :
Ceiling :
>= 8 km
>= 3000ft
5 to 8 km
1000 to 3000 ft
1500m to 5 km
500 to 1000 ft
800 to 1500m
200 to 500 ft
< 800m
< 200 ft
Symbols :   Thunderstorms  Fog  Heavy snow  Heavy precipitations  Wind > 20 kt







- Airport Elevation : 47 ft
- IATA code : ACK


KACK - Nantucket Memorial

CURRENT METAR :
  • 211653Z 18004KT 10SM CLR 23/16 A3019 RMK AO2 SLP222 T02330156

EXPIRED METARs :
  • 211553Z 02007KT 350V050 10SM CLR 24/14 A3019 RMK AO2 SLP222 T02440144
  • 211453Z VRB06KT 10SM CLR 24/15 A3019 RMK AO2 SLP224 T02390150 50005

TAF KACK
Valid from the 21 at 18:00 until the 22 at 18:00 UTC


211720Z 2118/2218 18004KT P6SM SKC
FM212100 22005KT P6SM SKC
FM220000 19004KT P6SM SKC
FM221000 21006KT P6SM FEW250
No reported NOTAMs for that airfield.



MET'MAP, your aeronautical weather chart ! - Copyright ORBIFLY December 2007 - Disclaimer

ORBIFLY MET'MAP TEAM :

Programming & Development : Alexandra Zaïnal
Concept & Development : Baudouin d'Aumeries
Co-Development & Prog : Marc-Olivier Méhu
Technical & hardware support : Manuel Goepfert

Contact : metmap@orbifly.com




SOURCES & CREDITS :

   NOAA       Earth
Advisory